DO-0002 weather

CLOSED Old Barahona Airport
Barahona, Barahona Province, Dominican Republic

Public forecast

Using degrees Celsius for public forecast. Weather courtesy of forecast.io.

METAR (pilot weather report)

Closest report is Maria Montez International Airport, 2.5 nm (4.7 km) NNW. Retrieved 2019/03/18 16:00 UTC (1 hour ago):

MDBH 181600Z 13012KT 9999 FEW025 28/20 Q1018 NOSIG

TAF (pilot weather forecast)

Forecast is more than 12 hours old.

Closest forecast is Maria Montez International Airport, 2.5 nm (4.7 km) NNW. Retrieved 2019/03/16 06:05 UTC (2 days ago):

TAF MDBH 160400Z 1606/1706 00000KT 9999 FEW018 SCT300 BECMG 1614/1616 13012KT